Richibucto, Canada
Current Conditions -  °F | °C
As of 8:38 AM on Saturday 25 Oct 2014 (Local Time) from CYQM Reporting Station
Drizzle Drizzle  
Wind Chill: 40°   Ceiling: 400
Heat Index: 46°   Visibility: 1.5mi
Dew Point: 46°   Wind: 14mph
Humidity: 100%   Direction: 350°N
Pressure: 29.51"   Gusts: 21mph
Location:  46.68°N, 64.87°W
Report Text: CYQM 251138Z 35012G18KT 1 1/2SM -DZ BR BKN004 OVC016 08/08 A2951 RMK SF6SC2 SLP994
Loading
Personal Weather Stations






























Interactive Weather Map
Tropical Storm Tracking
New forecast layout! Learn more

10-Day Weather Forecast

Advertisements
Track Severe Weather on mobile